Time;durP1;ratioP1;P1;durP2;ratioP2;P2;SDS_P1;SDS_P2;PMS_P1;PMS_P2;Temp;Humidity;BMP_temperature;BMP_pressure;BME280_temperature;BME280_humidity;BME280_pressure;Samples;Min_cycle;Max_cycle;Signal;HPM_P1;HPM_P2
2022/11/27 00:02:54;;;;;;;6.75;3.53;;;;;;;4.53;100.00;102495.28;6222098;28;20071;-71
2022/11/27 00:05:58;;;;;;;13.43;6.30;;;;;;;4.56;100.00;102489.22;6221158;28;20054;-70
2022/11/27 00:09:02;;;;;;;7.88;3.85;;;;;;;4.60;100.00;102495.31;6221783;28;20045;-70
2022/11/27 00:12:04;;;;;;;18.20;4.15;;;;;;;4.60;100.00;102482.28;6221534;28;20086;-70
2022/11/27 00:15:06;;;;;;;7.72;3.85;;;;;;;4.56;100.00;102478.81;6221591;28;20478;-71
2022/11/27 00:18:09;;;;;;;9.65;4.05;;;;;;;4.57;100.00;102481.41;6221488;28;20056;-70
2022/11/27 00:21:12;;;;;;;10.35;3.85;;;;;;;4.51;100.00;102478.81;6221605;28;20069;-70
2022/11/27 00:24:14;;;;;;;7.55;3.92;;;;;;;4.52;100.00;102477.06;6224834;28;20049;-71
2022/11/27 00:27:15;;;;;;;16.00;4.88;;;;;;;4.53;100.00;102476.19;6226253;28;20045;-70
2022/11/27 00:30:17;;;;;;;8.40;4.50;;;;;;;4.51;100.00;102471.00;6225945;28;20050;-70
2022/11/27 00:33:20;;;;;;;14.20;4.72;;;;;;;4.51;100.00;102462.31;6226184;28;20096;-69
2022/11/27 00:36:21;;;;;;;11.82;4.40;;;;;;;4.49;100.00;102471.84;6225916;28;20061;-70
2022/11/27 00:39:23;;;;;;;12.85;5.22;;;;;;;4.51;100.00;102467.53;6226045;28;20042;-70
2022/11/27 00:42:24;;;;;;;10.98;3.85;;;;;;;4.53;100.00;102468.38;6225935;28;20061;-71
2022/11/27 00:45:26;;;;;;;12.45;4.35;;;;;;;4.52;100.00;102466.66;6225520;28;20054;-71
2022/11/27 00:48:29;;;;;;;9.30;5.20;;;;;;;4.52;100.00;102458.84;6226110;28;20054;-70
2022/11/27 00:51:31;;;;;;;11.52;4.28;;;;;;;4.55;100.00;102474.47;6225575;28;20497;-71
2022/11/27 00:54:33;;;;;;;13.00;5.60;;;;;;;4.54;100.00;102472.72;6225599;28;20053;-70
2022/11/27 00:57:34;;;;;;;15.13;5.70;;;;;;;4.50;100.00;102471.00;6225656;28;20049;-70
2022/11/27 01:00:35;;;;;;;15.48;5.25;;;;;;;4.58;100.00;102461.44;6225284;28;20064;-69
2022/11/27 01:03:38;;;;;;;11.70;5.80;;;;;;;4.56;100.00;102453.63;6225617;28;20053;-71
2022/11/27 01:06:40;;;;;;;9.55;5.43;;;;;;;4.57;100.00;102450.16;6224877;28;20049;-70
2022/11/27 01:09:42;;;;;;;12.00;4.60;;;;;;;4.55;100.00;102451.91;6225271;28;20050;-71
2022/11/27 01:12:43;;;;;;;19.50;6.55;;;;;;;4.51;100.00;102442.38;6225264;28;20057;-71
2022/11/27 01:15:45;;;;;;;17.58;5.85;;;;;;;4.52;100.00;102433.69;6225109;28;20520;-70
2022/11/27 01:18:49;;;;;;;23.42;6.85;;;;;;;4.51;100.00;102431.09;6225231;28;20046;-71
2022/11/27 01:21:51;;;;;;;15.05;5.95;;;;;;;4.52;100.00;102438.03;6224855;28;20041;-71
2022/11/27 01:24:52;;;;;;;18.50;6.50;;;;;;;4.50;100.00;102438.03;6224585;28;20060;-71
2022/11/27 01:27:54;;;;;;;20.52;7.30;;;;;;;4.45;100.00;102444.09;6225228;28;20053;-71
2022/11/27 01:30:56;;;;;;;20.02;7.57;;;;;;;4.51;100.00;102442.38;6224605;28;20058;-71
2022/11/27 01:34:02;;;;;;;16.48;6.15;;;;;;;4.51;100.00;102439.75;6223776;28;20056;-70
2022/11/27 01:37:03;;;;;;;16.52;7.03;;;;;;;4.53;100.00;102435.41;6224696;28;20486;-70
2022/11/27 01:40:06;;;;;;;15.13;6.82;;;;;;;4.50;100.00;102431.97;6224368;28;20072;-71
2022/11/27 01:43:14;;;;;;;17.35;7.15;;;;;;;4.53;100.00;102427.59;6224703;28;20053;-71
2022/11/27 01:46:26;;;;;;;15.68;6.53;;;;;;;4.49;100.00;102419.78;6224265;28;20057;-70
2022/11/27 01:49:33;;;;;;;13.48;6.95;;;;;;;4.50;100.00;102419.81;6224562;28;20049;-70
2022/11/27 01:52:38;;;;;;;14.52;6.72;;;;;;;4.54;100.00;102423.25;6223895;28;20414;-71
2022/11/27 01:55:45;;;;;;;11.80;6.53;;;;;;;4.54;100.00;102433.66;6224052;28;20053;-70
2022/11/27 01:58:47;;;;;;;18.30;6.50;;;;;;;4.57;100.00;102431.06;6224206;28;20050;-70
2022/11/27 02:01:48;;;;;;;17.08;6.15;;;;;;;4.58;100.00;102431.06;6224001;28;20520;-70
2022/11/27 02:04:52;;;;;;;13.50;5.65;;;;;;;4.54;100.00;102420.66;6223746;28;20050;-69
2022/11/27 02:07:54;;;;;;;20.40;7.00;;;;;;;4.55;100.00;102417.19;6223927;28;20046;-70
2022/11/27 02:11:05;;;;;;;20.08;7.30;;;;;;;4.53;100.00;102422.38;6223562;28;20064;-70
2022/11/27 02:14:14;;;;;;;17.42;6.90;;;;;;;4.51;100.00;102413.72;6223904;28;20054;-71
2022/11/27 02:17:21;;;;;;;13.70;6.90;;;;;;;4.51;100.00;102411.13;6223817;28;20069;-71
2022/11/27 02:20:34;;;;;;;13.93;5.75;;;;;;;4.50;100.00;102411.13;6223597;28;20054;-71
2022/11/27 02:24:12;;;;;;;16.45;6.20;;;;;;;4.48;100.00;102405.03;6202277;28;20502;-71
2022/11/27 02:27:33;;;;;;;16.38;6.40;;;;;;;4.45;100.00;102413.75;6168714;28;20058;-71
2022/11/27 02:30:43;;;;;;;14.02;5.38;;;;;;;4.43;100.00;102414.59;6174889;28;20054;-71
2022/11/27 02:33:50;;;;;;;18.88;6.90;;;;;;;4.40;100.00;102412.00;6174899;28;20413;-71
2022/11/27 02:36:58;;;;;;;12.48;5.40;;;;;;;4.30;100.00;102404.19;6175338;28;20051;-71
2022/11/27 02:40:05;;;;;;;15.93;5.65;;;;;;;4.26;100.00;102397.25;6174473;28;20078;-71
2022/11/27 02:43:10;;;;;;;15.75;6.90;;;;;;;4.24;100.00;102391.19;6174933;28;20529;-71
2022/11/27 02:46:14;;;;;;;14.27;5.75;;;;;;;4.22;100.00;102392.06;6173187;28;20061;-70
2022/11/27 02:49:18;;;;;;;15.07;6.20;;;;;;;4.18;100.00;102382.50;6174924;28;20050;-71
2022/11/27 02:52:20;;;;;;;16.08;7.25;;;;;;;4.11;100.00;102384.25;6174336;28;20074;-71
2022/11/27 02:55:26;;;;;;;19.23;6.25;;;;;;;4.13;100.00;102385.13;6174208;28;20055;-71
2022/11/27 02:58:29;;;;;;;16.58;5.95;;;;;;;4.06;100.00;102378.19;6174382;28;20047;-71
2022/11/27 03:01:40;;;;;;;14.43;5.13;;;;;;;4.02;100.00;102371.25;6174168;28;20070;-70
2022/11/27 03:04:47;;;;;;;16.20;5.65;;;;;;;3.97;100.00;102383.41;6173956;28;20051;-71
2022/11/27 03:07:54;;;;;;;25.60;6.63;;;;;;;3.90;100.00;102372.09;6174102;28;20461;-71
2022/11/27 03:11:01;;;;;;;20.80;6.07;;;;;;;3.84;100.00;102372.13;6173937;28;20054;-71
2022/11/27 03:14:06;;;;;;;19.88;6.05;;;;;;;3.81;100.00;102369.50;6173857;28;20418;-69
2022/11/27 03:17:17;;;;;;;15.40;5.72;;;;;;;3.75;100.00;102359.97;6174358;28;20137;-71
2022/11/27 03:20:23;;;;;;;9.98;5.10;;;;;;;3.68;100.00;102359.97;6179969;28;20050;-71
2022/11/27 03:23:25;;;;;;;7.55;4.10;;;;;;;3.62;100.00;102355.63;6211435;28;20060;-70
2022/11/27 03:26:26;;;;;;;13.68;5.70;;;;;;;3.58;100.00;102353.03;6211635;28;20493;-71
2022/11/27 03:29:33;;;;;;;13.75;5.50;;;;;;;3.52;100.00;102346.94;6222350;28;20072;-71
2022/11/27 03:32:37;;;;;;;10.48;4.50;;;;;;;3.50;100.00;102340.03;6212918;28;20376;-71
2022/11/27 03:35:38;;;;;;;9.57;5.05;;;;;;;3.41;100.00;102327.03;6222005;28;20057;-70
2022/11/27 03:38:40;;;;;;;9.40;4.22;;;;;;;3.35;100.00;102333.06;6221926;28;20046;-71
2022/11/27 03:41:50;;;;;;;14.13;5.47;;;;;;;3.29;100.00;102333.06;6222208;28;20054;-70
2022/11/27 03:44:57;;;;;;;8.40;4.65;;;;;;;3.28;100.00;102345.19;6219163;28;20046;-70
2022/11/27 03:48:14;;;;;;;9.70;4.35;;;;;;;3.29;100.00;102335.66;6222049;28;20409;-70
2022/11/27 03:51:21;;;;;;;9.43;4.93;;;;;;;3.29;100.00;102335.66;6221589;28;20049;-70
2022/11/27 03:54:42;;;;;;;14.13;5.35;;;;;;;3.28;100.00;102327.00;6221525;28;20072;-71
2022/11/27 03:57:50;;;;;;;9.13;4.18;;;;;;;3.25;100.00;102334.75;6223285;28;20050;-70
2022/11/27 04:00:53;;;;;;;9.23;4.55;;;;;;;3.22;100.00;102337.34;6226918;28;20057;-71
2022/11/27 04:03:55;;;;;;;8.48;4.07;;;;;;;3.22;100.00;102326.94;6226566;28;20054;-70
2022/11/27 04:06:57;;;;;;;9.45;4.68;;;;;;;3.19;100.00;102329.56;6226938;28;20050;-71
2022/11/27 04:09:58;;;;;;;15.98;5.32;;;;;;;3.16;100.00;102320.88;6226699;28;20042;-70
2022/11/27 04:12:59;;;;;;;11.48;4.32;;;;;;;3.12;100.00;102325.19;6226953;28;20053;-71
2022/11/27 04:16:01;;;;;;;6.72;4.00;;;;;;;3.11;100.00;102333.88;6226492;28;20050;-71
2022/11/27 04:19:04;;;;;;;9.02;3.25;;;;;;;3.10;100.00;102329.53;6226632;28;20042;-70
2022/11/27 04:22:05;;;;;;;14.07;4.18;;;;;;;3.06;100.00;102338.19;6226426;28;20050;-71
2022/11/27 04:25:08;;;;;;;11.70;4.40;;;;;;;2.98;100.00;102324.28;6226040;28;20513;-70
2022/11/27 04:28:09;;;;;;;9.25;4.05;;;;;;;2.95;100.00;102322.56;6226747;28;20517;-70
2022/11/27 04:31:10;;;;;;;10.32;4.20;;;;;;;2.95;100.00;102311.28;6226032;28;20064;-71
2022/11/27 04:34:13;;;;;;;6.82;3.28;;;;;;;2.97;100.00;102307.00;6225986;28;20057;-70
2022/11/27 04:37:15;;;;;;;6.18;4.05;;;;;;;3.01;100.00;102300.94;6226301;28;20080;-71
2022/11/27 04:40:16;;;;;;;9.65;4.40;;;;;;;3.01;100.00;102295.75;6226020;28;20057;-71
2022/11/27 04:43:18;;;;;;;9.65;3.97;;;;;;;2.97;100.00;102297.47;6225913;28;20497;-71
2022/11/27 04:46:20;;;;;;;10.20;4.25;;;;;;;2.99;100.00;102295.72;6225831;28;20053;-70
2022/11/27 04:49:23;;;;;;;8.90;4.25;;;;;;;3.01;100.00;102286.22;6226195;28;20398;-69
2022/11/27 04:52:24;;;;;;;13.95;5.03;;;;;;;3.01;100.00;102280.16;6226047;28;20498;-70
2022/11/27 04:55:26;;;;;;;12.98;4.68;;;;;;;3.04;100.00;102280.16;6225669;28;20053;-70
2022/11/27 04:58:27;;;;;;;10.52;5.50;;;;;;;3.07;100.00;102285.38;6225778;28;20505;-71
2022/11/27 05:01:28;;;;;;;12.45;5.05;;;;;;;3.10;100.00;102279.34;6225377;28;20054;-70
2022/11/27 05:04:31;;;;;;;9.98;5.63;;;;;;;3.15;100.00;102262.88;6225213;28;20490;-70
2022/11/27 05:07:33;;;;;;;10.65;4.82;;;;;;;3.16;100.00;102262.00;6225567;28;20053;-71
2022/11/27 05:10:34;;;;;;;11.25;4.60;;;;;;;3.13;100.00;102256.81;6224154;28;20141;-70
2022/11/27 05:13:36;;;;;;;12.50;4.90;;;;;;;3.15;100.00;102252.50;6225711;28;20050;-71
2022/11/27 05:16:38;;;;;;;9.50;4.60;;;;;;;3.17;100.00;102257.69;6224842;28;20057;-70
2022/11/27 05:19:40;;;;;;;11.13;4.80;;;;;;;3.17;100.00;102261.13;6225288;28;20046;-70
2022/11/27 05:22:43;;;;;;;13.30;4.93;;;;;;;3.17;100.00;102261.13;6225050;28;20418;-70
2022/11/27 05:25:44;;;;;;;10.80;4.63;;;;;;;3.20;100.00;102255.97;6224648;28;20052;-70
2022/11/27 05:28:45;;;;;;;10.13;4.80;;;;;;;3.15;100.00;102252.50;6225252;28;20521;-70
2022/11/27 05:31:47;;;;;;;8.77;4.45;;;;;;;3.11;100.00;102247.28;6224631;28;20057;-69
2022/11/27 05:34:50;;;;;;;9.95;4.70;;;;;;;3.12;100.00;102244.69;6224809;28;20050;-71
2022/11/27 05:37:51;;;;;;;8.77;4.60;;;;;;;3.13;100.00;102236.03;6224723;28;20054;-71
2022/11/27 05:40:53;;;;;;;8.13;4.13;;;;;;;3.09;100.00;102236.00;6224855;28;20046;-70
2022/11/27 05:43:54;;;;;;;10.07;4.60;;;;;;;3.07;100.00;102230.84;6224147;28;20433;-70
2022/11/27 05:46:56;;;;;;;6.93;3.75;;;;;;;3.05;100.00;102225.66;6224734;28;20074;-70
2022/11/27 05:49:59;;;;;;;8.55;4.43;;;;;;;3.07;100.00;102222.19;6224147;28;20050;-70
2022/11/27 05:53:00;;;;;;;12.05;5.65;;;;;;;3.05;100.00;102225.66;6224778;28;20050;-71
2022/11/27 05:56:03;;;;;;;10.40;5.03;;;;;;;3.04;100.00;102229.13;6224104;28;20410;-70
2022/11/27 05:59:05;;;;;;;9.57;4.38;;;;;;;3.04;100.00;102221.31;6224461;28;20061;-71
2022/11/27 06:02:07;;;;;;;11.90;4.75;;;;;;;3.04;100.00;102221.31;6223950;28;20089;-70
2022/11/27 06:05:10;;;;;;;9.38;5.00;;;;;;;3.02;100.00;102224.78;6224021;28;20068;-70
2022/11/27 06:08:11;;;;;;;11.88;4.30;;;;;;;3.02;100.00;102232.56;6223915;28;20418;-71
2022/11/27 06:11:15;;;;;;;8.95;4.28;;;;;;;3.05;100.00;102227.38;6223813;28;20141;-70
2022/11/27 06:14:16;;;;;;;6.82;4.07;;;;;;;3.01;100.00;102228.22;6223737;28;20058;-70
2022/11/27 06:17:17;;;;;;;13.57;4.40;;;;;;;2.97;100.00;102222.16;6223694;28;20054;-70
2022/11/27 06:20:20;;;;;;;11.60;5.00;;;;;;;2.98;100.00;102223.03;6200762;28;20053;-70
2022/11/27 06:23:22;;;;;;;15.25;5.03;;;;;;;2.95;100.00;102217.81;6199304;28;20046;-70
2022/11/27 06:26:25;;;;;;;7.50;4.22;;;;;;;2.92;100.00;102207.44;6198542;28;20042;-70
2022/11/27 06:29:27;;;;;;;14.15;5.35;;;;;;;2.88;100.00;102206.56;6199193;28;20042;-70
2022/11/27 06:32:29;;;;;;;9.07;4.57;;;;;;;2.87;100.00;102210.03;6199296;28;20050;-70
2022/11/27 06:35:32;;;;;;;8.77;4.13;;;;;;;2.81;100.00;102202.22;6198889;28;20054;-70
2022/11/27 06:38:34;;;;;;;9.38;4.32;;;;;;;2.78;100.00;102199.63;6198787;28;20486;-70
2022/11/27 06:41:35;;;;;;;12.82;5.13;;;;;;;2.74;100.00;102195.28;6198880;28;20051;-70
2022/11/27 06:44:37;;;;;;;14.30;5.50;;;;;;;2.71;100.00;102184.91;6198476;28;20241;-71
2022/11/27 06:47:38;;;;;;;16.52;4.80;;;;;;;2.70;100.00;102188.34;6199272;28;20058;-70
2022/11/27 06:50:42;;;;;;;9.75;4.20;;;;;;;2.71;100.00;102187.50;6198420;28;20129;-70
2022/11/27 06:53:44;;;;;;;11.82;4.40;;;;;;;2.68;100.00;102187.47;6198500;28;20054;-70
2022/11/27 06:56:45;;;;;;;9.80;4.38;;;;;;;2.67;100.00;102184.00;6198767;28;20691;-70
2022/11/27 06:59:47;;;;;;;12.77;5.93;;;;;;;2.64;100.00;102172.78;6198482;28;20053;-69
2022/11/27 07:02:53;;;;;;;13.02;4.43;;;;;;;2.63;100.00;102168.44;6198614;28;20055;-70
2022/11/27 07:05:59;;;;;;;10.30;4.80;;;;;;;2.62;100.00;102166.69;6198230;28;20055;-70
2022/11/27 07:09:00;;;;;;;9.45;3.72;;;;;;;2.61;100.00;102167.56;6203901;28;20069;-70
2022/11/27 07:12:04;;;;;;;12.85;5.10;;;;;;;2.60;100.00;102161.53;6211323;28;20046;-71
2022/11/27 07:15:07;;;;;;;10.93;4.97;;;;;;;2.63;100.00;102169.28;6202589;28;20061;-70
2022/11/27 07:18:09;;;;;;;10.77;4.45;;;;;;;2.68;100.00;102167.59;6198086;28;20054;-70
2022/11/27 07:21:12;;;;;;;14.00;5.05;;;;;;;2.70;100.00;102168.47;6198022;28;20054;-70
2022/11/27 07:24:14;;;;;;;12.50;4.93;;;;;;;2.73;100.00;102170.22;6197674;28;20513;-71
2022/11/27 07:27:15;;;;;;;7.43;3.55;;;;;;;2.71;100.00;102165.00;6198469;28;20050;-71
2022/11/27 07:30:17;;;;;;;10.05;5.22;;;;;;;2.72;100.00;102158.94;6197584;28;20043;-70
2022/11/27 07:33:18;;;;;;;10.27;4.85;;;;;;;2.76;100.00;102159.81;6197696;28;20062;-70
2022/11/27 07:36:22;;;;;;;8.25;3.83;;;;;;;2.77;100.00;102153.75;6197460;28;20490;-71
2022/11/27 07:39:24;;;;;;;11.23;4.10;;;;;;;2.82;100.00;102154.66;6197845;28;20414;-70
2022/11/27 07:42:25;;;;;;;7.90;4.47;;;;;;;2.88;100.00;102159.84;6197519;28;20061;-70
2022/11/27 07:45:27;;;;;;;9.77;4.10;;;;;;;2.94;100.00;102171.94;6197391;28;20051;-71
2022/11/27 07:48:28;;;;;;;10.27;4.60;;;;;;;3.01;100.00;102166.78;6197587;28;20466;-70
2022/11/27 07:51:31;;;;;;;7.55;4.22;;;;;;;3.12;100.00;102163.31;6198002;28;20065;-70
2022/11/27 07:54:33;;;;;;;14.20;6.30;;;;;;;3.20;100.00;102159.00;6212487;28;20061;-70
2022/11/27 07:57:34;;;;;;;9.32;4.53;;;;;;;3.27;100.00;102161.59;6209778;28;20073;-70
2022/11/27 08:00:36;;;;;;;14.48;4.65;;;;;;;3.29;100.00;102154.66;6211828;28;20042;-69
2022/11/27 08:03:38;;;;;;;7.85;4.13;;;;;;;3.34;100.00;102152.03;6213280;28;20060;-70
2022/11/27 08:06:41;;;;;;;18.65;5.35;;;;;;;3.37;100.00;102136.47;6221749;28;20523;-71
2022/11/27 08:09:42;;;;;;;11.18;4.30;;;;;;;3.42;100.00;102137.31;6221633;28;20056;-71
2022/11/27 08:12:43;;;;;;;12.93;4.10;;;;;;;3.44;100.00;102137.31;6222204;28;20109;-71
2022/11/27 08:15:46;;;;;;;15.52;4.28;;;;;;;3.48;100.00;102137.31;6221433;28;20049;-71
2022/11/27 08:18:48;;;;;;;11.32;5.05;;;;;;;3.48;100.00;102137.31;6222000;28;20061;-71
2022/11/27 08:21:51;;;;;;;11.82;4.50;;;;;;;3.51;100.00;102131.25;6221529;28;20054;-71
2022/11/27 08:24:52;;;;;;;13.30;3.95;;;;;;;3.52;100.00;102132.97;6221447;28;20061;-71
2022/11/27 08:27:54;;;;;;;8.63;3.80;;;;;;;3.54;100.00;102126.91;6221942;28;20497;-71
2022/11/27 08:30:57;;;;;;;7.72;3.97;;;;;;;3.54;100.00;102132.13;6221336;28;20042;-71
2022/11/27 08:33:58;;;;;;;8.48;4.50;;;;;;;3.58;100.00;102126.88;6221612;28;20691;-71
2022/11/27 08:37:01;;;;;;;8.40;4.28;;;;;;;3.63;100.00;102131.19;6221316;28;20104;-71
2022/11/27 08:40:03;;;;;;;12.43;4.25;;;;;;;3.70;100.00;102132.06;6199305;28;20068;-71
2022/11/27 08:43:05;;;;;;;14.48;5.38;;;;;;;3.74;100.00;102129.44;6197116;28;20065;-71
2022/11/27 08:46:07;;;;;;;9.27;4.70;;;;;;;3.81;100.00;102125.09;6201279;28;20517;-71
2022/11/27 08:49:08;;;;;;;13.77;5.13;;;;;;;3.89;100.00;102118.13;6201493;28;20054;-71
2022/11/27 08:52:11;;;;;;;12.63;4.82;;;;;;;3.94;100.00;102118.13;6200673;28;20042;-71
2022/11/27 08:55:13;;;;;;;6.70;3.95;;;;;;;4.01;100.00;102118.09;6200800;28;20057;-71
2022/11/27 08:58:14;;;;;;;12.30;5.43;;;;;;;4.06;100.00;102112.88;6201156;28;20061;-71
2022/11/27 09:01:19;;;;;;;13.73;5.53;;;;;;;4.09;100.00;102112.88;6199728;28;20386;-71
2022/11/27 09:04:20;;;;;;;15.20;5.40;;;;;;;4.12;100.00;102114.56;6200174;28;20062;-71
2022/11/27 09:07:23;;;;;;;20.05;7.03;;;;;;;4.08;100.00;102109.38;6200893;28;20050;-71
2022/11/27 09:10:25;;;;;;;13.13;5.57;;;;;;;4.08;100.00;102105.91;6200966;28;20042;-71
2022/11/27 09:13:26;;;;;;;15.23;4.95;;;;;;;4.10;100.00;102096.38;6201009;28;20422;-71
2022/11/27 09:16:29;;;;;;;7.50;3.83;;;;;;;4.07;100.00;102099.84;6199898;28;20525;-71
2022/11/27 09:19:30;;;;;;;13.43;5.05;;;;;;;4.17;100.00;102086.78;6199613;28;20046;-71
2022/11/27 09:22:33;;;;;;;13.43;4.10;;;;;;;4.22;100.00;102077.22;6198468;28;20076;-71
2022/11/27 09:25:38;;;;;;;9.15;4.38;;;;;;;4.26;100.00;102073.72;6207905;28;20050;-71
2022/11/27 09:28:41;;;;;;;9.13;4.68;;;;;;;4.36;100.00;102072.81;6199323;28;20453;-71
2022/11/27 09:31:42;;;;;;;12.75;4.68;;;;;;;4.48;100.00;102070.13;6199215;28;20042;-71
2022/11/27 09:34:44;;;;;;;10.73;4.97;;;;;;;4.60;100.00;102076.13;6199109;28;20051;-71
2022/11/27 09:37:46;;;;;;;7.88;4.47;;;;;;;4.69;100.00;102078.66;6200024;28;20529;-71
2022/11/27 09:40:50;;;;;;;9.57;4.82;;;;;;;4.78;100.00;102073.38;6199527;28;20047;-71
2022/11/27 09:43:55;;;;;;;6.95;3.95;;;;;;;4.93;100.00;102064.56;6197443;28;20057;-71
2022/11/27 09:46:59;;;;;;;13.35;4.70;;;;;;;4.99;100.00;102051.47;6200002;28;20065;-71
2022/11/27 09:50:04;;;;;;;9.70;4.45;;;;;;;5.10;100.00;102041.84;6199578;28;20042;-72
2022/11/27 09:53:20;;;;;;;10.98;5.38;;;;;;;5.12;100.00;102040.06;6199753;28;20504;-71
2022/11/27 09:56:22;;;;;;;12.65;4.80;;;;;;;5.14;100.00;102051.34;6198148;28;20078;-71
2022/11/27 09:59:30;;;;;;;6.53;3.75;;;;;;;5.16;100.00;102061.75;6198619;28;20051;-71
2022/11/27 10:02:33;;;;;;;7.20;3.88;;;;;;;5.21;100.00;102054.75;6199912;28;20096;-71
2022/11/27 10:05:44;;;;;;;7.47;4.05;;;;;;;5.25;100.00;102051.25;6199516;28;20057;-71
2022/11/27 10:08:58;;;;;;;6.25;3.72;;;;;;;5.28;100.00;102054.69;6200045;28;20050;-71
2022/11/27 10:12:09;;;;;;;7.57;3.78;;;;;;;5.34;100.00;102049.41;6199286;28;20046;-71
2022/11/27 10:15:15;;;;;;;9.70;3.92;;;;;;;5.38;100.00;102041.56;6195962;28;20053;-71
2022/11/27 10:18:25;;;;;;;7.88;4.30;;;;;;;5.44;100.00;102044.09;6199289;28;20050;-71
2022/11/27 10:21:37;;;;;;;5.93;3.17;;;;;;;5.49;100.00;102042.28;6196524;28;20050;-71
2022/11/27 10:24:45;;;;;;;10.32;4.65;;;;;;;5.54;100.00;102038.75;6197895;28;20530;-71
2022/11/27 10:28:02;;;;;;;7.53;4.13;;;;;;;5.53;100.00;102037.00;6202897;28;20051;-71
2022/11/27 10:31:11;;;;;;;7.68;3.47;;;;;;;5.61;100.00;102029.09;6210202;28;20045;-71
2022/11/27 10:34:25;;;;;;;6.97;3.78;;;;;;;5.69;100.00;102019.44;6196864;28;20054;-71
2022/11/27 10:37:32;;;;;;;11.35;3.97;;;;;;;5.74;100.00;102015.03;6202182;28;20066;-71
2022/11/27 10:40:40;;;;;;;7.38;3.53;;;;;;;5.80;100.00;102020.16;6222762;28;20050;-71
2022/11/27 10:43:41;;;;;;;10.63;3.83;;;;;;;5.88;100.00;102016.59;6211550;28;20398;-71
2022/11/27 10:46:43;;;;;;;7.40;4.05;;;;;;;5.93;100.00;102022.66;6212945;28;20050;-71
2022/11/27 10:49:46;;;;;;;7.55;3.78;;;;;;;6.01;100.00;102026.03;6214155;28;20049;-71
2022/11/27 10:52:54;;;;;;;11.10;4.07;;;;;;;6.15;100.00;102023.22;6223490;28;20045;-71
2022/11/27 10:56:13;;;;;;;8.98;4.28;;;;;;;6.20;100.00;102017.03;6222497;28;20050;-71
2022/11/27 10:59:18;;;;;;;11.82;4.53;;;;;;;6.28;100.00;102011.72;6223332;28;20056;-71
2022/11/27 11:02:29;;;;;;;10.30;4.28;;;;;;;6.37;100.00;102015.94;6222600;28;20441;-71
2022/11/27 11:05:32;;;;;;;8.30;3.30;;;;;;;6.40;100.00;102008.88;6209691;28;20054;-72
2022/11/27 11:08:35;;;;;;;12.27;4.55;;;;;;;6.40;100.00;102008.03;6214109;28;20125;-71
2022/11/27 11:11:38;;;;;;;9.75;4.10;;;;;;;6.38;100.00;102008.06;6198116;28;20042;-72
2022/11/27 11:14:40;;;;;;;8.63;4.05;;;;;;;6.34;100.00;101999.41;6214207;28;20054;-72
2022/11/27 11:17:41;;;;;;;15.57;4.13;;;;;;;6.34;100.00;101994.19;6222835;28;20053;-71
2022/11/27 11:20:46;;;;;;;7.35;3.67;;;;;;;6.41;100.00;101989.75;6205790;28;20051;-72
2022/11/27 11:23:56;;;;;;;11.30;4.32;;;;;;;6.44;100.00;101984.47;6198409;28;20050;-71
2022/11/27 11:27:04;;;;;;;12.20;4.10;;;;;;;6.49;100.00;101969.56;6196358;28;20061;-72
2022/11/27 11:30:09;;;;;;;6.80;3.30;;;;;;;6.54;100.00;101969.50;6197531;28;20046;-72
2022/11/27 11:33:13;;;;;;;14.18;4.07;;;;;;;6.62;100.00;101975.47;6197653;28;20050;-72
2022/11/27 11:36:15;;;;;;;9.38;3.70;;;;;;;6.61;100.00;101965.91;6196735;28;20046;-72
2022/11/27 11:39:23;;;;;;;14.23;3.78;;;;;;;6.66;100.00;101968.44;6196914;28;20058;-72
2022/11/27 11:42:28;;;;;;;9.13;5.07;;;;;;;6.67;100.00;101960.56;6197697;28;20506;-72
2022/11/27 11:45:31;;;;;;;5.43;3.47;;;;;;;6.74;100.00;101971.78;6200541;28;20051;-72
2022/11/27 11:48:32;;;;;;;6.80;3.70;;;;;;;6.74;100.00;101962.19;6205495;28;20054;-72
2022/11/27 11:51:56;;;;;;;11.23;4.28;;;;;;;6.73;100.00;101963.09;6207154;28;20486;-72
2022/11/27 11:55:03;;;;;;;7.60;3.63;;;;;;;6.71;100.00;101954.41;6197326;28;20050;-72
2022/11/27 11:58:43;;;;;;;8.18;3.20;;;;;;;6.76;100.00;101952.56;6216015;28;20424;-72
2022/11/27 12:01:52;;;;;;;;;;;;;;;6.81;100.00;101944.63;6193102;28;20042;-72
2022/11/27 12:05:35;;;;;;;10.23;3.33;;;;;;;6.84;100.00;101941.97;6195383;28;20385;-72
2022/11/27 12:08:50;;;;;;;11.32;3.80;;;;;;;6.86;100.00;101929.78;6122487;29;20062;-72
2022/11/27 12:11:56;;;;;;;12.43;3.67;;;;;;;6.90;100.00;101934.00;6112091;29;20183;-72
2022/11/27 12:15:06;;;;;;;7.35;3.55;;;;;;;6.90;100.00;101922.72;6195756;28;20085;-72
2022/11/27 12:18:13;;;;;;;5.65;3.38;;;;;;;6.93;100.00;101920.91;6196723;28;20042;-72
2022/11/27 12:21:18;;;;;;;9.30;4.38;;;;;;;6.93;100.00;101910.44;6200505;28;20069;-72
2022/11/27 12:24:30;;;;;;;7.85;4.53;;;;;;;6.94;100.00;101906.94;6201498;28;20054;-72
2022/11/27 12:27:43;;;;;;;7.32;3.25;;;;;;;6.97;100.00;101903.41;6200511;28;20046;-72
2022/11/27 12:30:54;;;;;;;12.20;4.28;;;;;;;6.99;100.00;101896.41;6197061;28;20057;-72
2022/11/27 12:34:02;;;;;;;7.72;3.78;;;;;;;7.02;100.00;101897.19;6204338;28;20073;-72
2022/11/27 12:37:19;;;;;;;8.98;3.97;;;;;;;7.02;100.00;101881.53;6201403;28;20410;-72
2022/11/27 12:40:49;;;;;;;7.32;3.83;;;;;;;7.02;100.00;101880.66;6200980;28;20070;-72
2022/11/27 12:43:55;;;;;;;6.90;3.85;;;;;;;7.05;100.00;101875.38;6187775;28;20419;-70
2022/11/27 12:47:02;;;;;;;7.20;3.13;;;;;;;7.10;100.00;101868.31;6199699;28;20050;-71
2022/11/27 12:50:09;;;;;;;8.07;3.30;;;;;;;7.14;100.00;101869.97;6200954;28;20387;-72
2022/11/27 12:53:18;;;;;;;7.32;3.20;;;;;;;7.11;100.00;101859.56;6201323;28;20548;-72
2022/11/27 12:56:24;;;;;;;8.07;3.42;;;;;;;7.11;100.00;101855.19;6200971;28;20058;-71
2022/11/27 12:59:32;;;;;;;10.65;4.18;;;;;;;7.06;100.00;101853.56;6187281;28;20418;-71
2022/11/27 13:02:39;;;;;;;10.27;4.07;;;;;;;7.06;100.00;101850.97;6177027;28;20058;-71
2022/11/27 13:05:46;;;;;;;7.57;3.40;;;;;;;7.08;100.00;101854.38;6176935;28;20051;-71
2022/11/27 13:08:54;;;;;;;8.90;3.45;;;;;;;7.08;100.00;101846.53;6177064;28;20050;-71
2022/11/27 13:11:56;;;;;;;8.88;3.45;;;;;;;7.01;100.00;101847.59;6185246;28;20391;-71
2022/11/27 13:15:01;;;;;;;8.45;3.30;;;;;;;6.99;100.00;101842.38;6215506;28;20053;-71
2022/11/27 13:18:13;;;;;;;7.60;3.47;;;;;;;7.03;100.00;101830.09;6215421;28;20057;-71
2022/11/27 13:21:21;;;;;;;6.65;3.25;;;;;;;7.04;100.00;101839.66;6215598;28;20486;-71
2022/11/27 13:24:24;;;;;;;4.75;2.67;;;;;;;7.06;100.00;101832.66;6206210;28;20131;-71
2022/11/27 13:27:29;;;;;;;10.23;3.90;;;;;;;7.06;100.00;101825.69;6199476;28;20051;-71
2022/11/27 13:30:36;;;;;;;11.48;4.03;;;;;;;7.07;100.00;101818.69;6199268;28;20055;-71
2022/11/27 13:33:42;;;;;;;6.90;3.63;;;;;;;7.07;100.00;101819.56;6201016;28;20053;-71
2022/11/27 13:36:46;;;;;;;14.52;3.90;;;;;;;7.06;100.00;101809.16;6200316;28;20071;-71
2022/11/27 13:39:47;;;;;;;11.27;3.25;;;;;;;7.05;100.00;101808.28;6200259;28;20089;-71
2022/11/27 13:42:54;;;;;;;9.25;3.45;;;;;;;7.05;100.00;101802.19;6200350;28;20053;-71
2022/11/27 13:46:04;;;;;;;5.82;2.92;;;;;;;7.06;100.00;101798.69;6199626;28;20053;-71
2022/11/27 13:49:07;;;;;;;5.72;2.78;;;;;;;7.11;100.00;101796.81;6218864;28;20052;-71
2022/11/27 13:52:14;;;;;;;5.22;2.88;;;;;;;7.11;100.00;101794.22;6220024;28;20061;-71
2022/11/27 13:55:24;;;;;;;5.25;3.22;;;;;;;7.15;100.00;101787.19;6224036;28;20073;-71
2022/11/27 13:58:31;;;;;;;6.65;3.00;;;;;;;7.16;100.00;101784.50;6224432;28;20055;-71
2022/11/27 14:01:32;;;;;;;5.18;3.22;;;;;;;7.14;100.00;101780.22;6223806;28;20050;-71
2022/11/27 14:04:47;;;;;;;13.90;3.45;;;;;;;7.14;100.00;101781.09;6223986;28;20061;-71
2022/11/27 14:07:50;;;;;;;4.30;2.70;;;;;;;7.13;100.00;101771.53;6203440;28;20042;-71
2022/11/27 14:10:56;;;;;;;10.00;3.08;;;;;;;7.10;100.00;101768.97;6199330;28;20057;-71
2022/11/27 14:13:59;;;;;;;4.13;2.50;;;;;;;7.08;100.00;101766.38;6199204;28;20130;-71
2022/11/27 14:17:03;;;;;;;5.72;3.40;;;;;;;7.05;100.00;101750.78;6199702;28;20494;-71